Caatiba, Brazil
Current Conditions -  °F | °C
As of 3:00 PM on Saturday 20 Dec 2014 (Local Time) from SBQV Reporting Station
Scattered Clouds Scattered Clouds  
Wind Chill: 82°   Ceiling: Unl
Heat Index: 85°   Visibility: 6mi
Dew Point: 68°   Wind: 7mph
Humidity: 62%   Direction: 360°N
Pressure: 30"   Gusts: NA
Location:  14.99°S, 40.41°W
Report Text: SBQV 201800Z 36006KT 9999 FEW018TCU SCT020 28/20 Q1016
Loading
Personal Weather Stations






























Interactive Weather Map New forecast layout! Learn more

10-Day Weather Forecast

Advertisements
Track Severe Weather on mobile